sensor_id;sensor_type;location;lat;lon;timestamp;P1;durP1;ratioP1;P2;durP2;ratioP2
17592;SDS011;8915;51.760;14.300;2024-02-23T00:01:03;1.70;;;1.60;;
17592;SDS011;8915;51.760;14.300;2024-02-23T00:03:30;1.87;;;1.77;;
17592;SDS011;8915;51.760;14.300;2024-02-23T00:05:57;1.80;;;1.70;;
17592;SDS011;8915;51.760;14.300;2024-02-23T00:08:23;1.70;;;1.57;;
17592;SDS011;8915;51.760;14.300;2024-02-23T00:10:51;1.93;;;1.80;;
17592;SDS011;8915;51.760;14.300;2024-02-23T00:13:17;2.20;;;2.00;;
17592;SDS011;8915;51.760;14.300;2024-02-23T00:15:43;1.90;;;1.80;;
17592;SDS011;8915;51.760;14.300;2024-02-23T00:18:10;2.20;;;2.10;;
17592;SDS011;8915;51.760;14.300;2024-02-23T00:20:38;1.83;;;1.70;;
17592;SDS011;8915;51.760;14.300;2024-02-23T00:23:04;2.57;;;1.80;;
17592;SDS011;8915;51.760;14.300;2024-02-23T00:25:30;1.90;;;1.80;;
17592;SDS011;8915;51.760;14.300;2024-02-23T00:28:01;2.37;;;1.80;;
17592;SDS011;8915;51.760;14.300;2024-02-23T00:30:27;2.33;;;2.10;;
17592;SDS011;8915;51.760;14.300;2024-02-23T00:32:53;1.73;;;1.63;;
17592;SDS011;8915;51.760;14.300;2024-02-23T00:35:20;2.00;;;1.80;;
17592;SDS011;8915;51.760;14.300;2024-02-23T00:37:46;2.67;;;2.27;;
17592;SDS011;8915;51.760;14.300;2024-02-23T00:40:12;1.90;;;1.80;;
17592;SDS011;8915;51.760;14.300;2024-02-23T00:42:39;3.03;;;1.83;;
17592;SDS011;8915;51.760;14.300;2024-02-23T00:45:07;2.17;;;1.97;;
17592;SDS011;8915;51.760;14.300;2024-02-23T00:47:34;1.90;;;1.80;;
17592;SDS011;8915;51.760;14.300;2024-02-23T00:50:02;1.80;;;1.70;;
17592;SDS011;8915;51.760;14.300;2024-02-23T00:52:29;2.97;;;1.80;;
17592;SDS011;8915;51.760;14.300;2024-02-23T00:54:55;2.07;;;1.80;;
17592;SDS011;8915;51.760;14.300;2024-02-23T00:57:22;2.23;;;1.70;;
17592;SDS011;8915;51.760;14.300;2024-02-23T00:59:52;1.87;;;1.77;;
17592;SDS011;8915;51.760;14.300;2024-02-23T01:02:20;1.80;;;1.70;;
17592;SDS011;8915;51.760;14.300;2024-02-23T01:04:46;2.20;;;1.70;;
17592;SDS011;8915;51.760;14.300;2024-02-23T01:07:12;2.17;;;2.00;;
17592;SDS011;8915;51.760;14.300;2024-02-23T01:09:39;1.80;;;1.70;;
17592;SDS011;8915;51.760;14.300;2024-02-23T01:12:05;3.53;;;2.13;;
17592;SDS011;8915;51.760;14.300;2024-02-23T01:14:32;2.23;;;1.50;;
17592;SDS011;8915;51.760;14.300;2024-02-23T01:16:58;1.70;;;1.60;;
17592;SDS011;8915;51.760;14.300;2024-02-23T01:19:26;1.83;;;1.63;;
17592;SDS011;8915;51.760;14.300;2024-02-23T01:21:52;1.70;;;1.60;;
17592;SDS011;8915;51.760;14.300;2024-02-23T01:24:24;1.63;;;1.40;;
17592;SDS011;8915;51.760;14.300;2024-02-23T01:26:52;1.70;;;1.60;;
17592;SDS011;8915;51.760;14.300;2024-02-23T01:29:19;1.60;;;1.50;;
17592;SDS011;8915;51.760;14.300;2024-02-23T01:31:45;1.53;;;1.43;;
17592;SDS011;8915;51.760;14.300;2024-02-23T01:34:12;1.47;;;1.37;;
17592;SDS011;8915;51.760;14.300;2024-02-23T01:36:39;2.13;;;1.57;;
17592;SDS011;8915;51.760;14.300;2024-02-23T01:39:06;2.53;;;1.30;;
17592;SDS011;8915;51.760;14.300;2024-02-23T01:41:33;1.70;;;1.60;;
17592;SDS011;8915;51.760;14.300;2024-02-23T01:43:59;1.80;;;1.40;;
17592;SDS011;8915;51.760;14.300;2024-02-23T01:46:26;1.63;;;1.53;;
17592;SDS011;8915;51.760;14.300;2024-02-23T01:48:52;1.60;;;1.50;;
17592;SDS011;8915;51.760;14.300;2024-02-23T01:51:19;2.90;;;1.60;;
17592;SDS011;8915;51.760;14.300;2024-02-23T01:53:47;2.63;;;1.37;;
17592;SDS011;8915;51.760;14.300;2024-02-23T01:56:13;1.83;;;1.27;;
17592;SDS011;8915;51.760;14.300;2024-02-23T01:58:43;1.33;;;1.23;;
17592;SDS011;8915;51.760;14.300;2024-02-23T02:01:10;1.93;;;1.10;;
17592;SDS011;8915;51.760;14.300;2024-02-23T02:03:37;1.40;;;1.30;;
17592;SDS011;8915;51.760;14.300;2024-02-23T02:06:04;3.80;;;1.30;;
17592;SDS011;8915;51.760;14.300;2024-02-23T02:08:31;1.43;;;0.80;;
17592;SDS011;8915;51.760;14.300;2024-02-23T02:11:00;0.80;;;0.80;;
17592;SDS011;8915;51.760;14.300;2024-02-23T02:13:27;1.77;;;1.17;;
17592;SDS011;8915;51.760;14.300;2024-02-23T02:15:54;1.23;;;1.10;;
17592;SDS011;8915;51.760;14.300;2024-02-23T02:18:20;0.83;;;0.80;;
17592;SDS011;8915;51.760;14.300;2024-02-23T02:20:50;0.70;;;0.70;;
17592;SDS011;8915;51.760;14.300;2024-02-23T02:23:18;0.90;;;0.90;;
17592;SDS011;8915;51.760;14.300;2024-02-23T02:25:44;1.30;;;0.80;;
17592;SDS011;8915;51.760;14.300;2024-02-23T02:28:12;1.80;;;0.80;;
17592;SDS011;8915;51.760;14.300;2024-02-23T02:30:39;0.90;;;0.90;;
17592;SDS011;8915;51.760;14.300;2024-02-23T02:33:05;0.60;;;0.60;;
17592;SDS011;8915;51.760;14.300;2024-02-23T02:35:31;1.17;;;0.80;;
17592;SDS011;8915;51.760;14.300;2024-02-23T02:37:58;0.87;;;0.67;;
17592;SDS011;8915;51.760;14.300;2024-02-23T02:40:24;0.63;;;0.63;;
17592;SDS011;8915;51.760;14.300;2024-02-23T02:42:50;1.13;;;0.60;;
17592;SDS011;8915;51.760;14.300;2024-02-23T02:45:18;0.63;;;0.63;;
17592;SDS011;8915;51.760;14.300;2024-02-23T02:47:44;0.70;;;0.70;;
17592;SDS011;8915;51.760;14.300;2024-02-23T02:50:11;1.90;;;0.93;;
17592;SDS011;8915;51.760;14.300;2024-02-23T02:52:38;0.60;;;0.53;;
17592;SDS011;8915;51.760;14.300;2024-02-23T02:55:04;1.70;;;0.70;;
17592;SDS011;8915;51.760;14.300;2024-02-23T02:57:31;0.60;;;0.60;;
17592;SDS011;8915;51.760;14.300;2024-02-23T02:59:57;0.67;;;0.67;;
17592;SDS011;8915;51.760;14.300;2024-02-23T03:02:25;0.70;;;0.70;;
17592;SDS011;8915;51.760;14.300;2024-02-23T03:04:51;0.67;;;0.67;;
17592;SDS011;8915;51.760;14.300;2024-02-23T03:07:19;1.10;;;0.73;;
17592;SDS011;8915;51.760;14.300;2024-02-23T03:09:46;1.17;;;0.67;;
17592;SDS011;8915;51.760;14.300;2024-02-23T03:12:13;0.50;;;0.50;;
17592;SDS011;8915;51.760;14.300;2024-02-23T03:14:43;0.60;;;0.60;;
17592;SDS011;8915;51.760;14.300;2024-02-23T03:17:09;0.70;;;0.70;;
17592;SDS011;8915;51.760;14.300;2024-02-23T03:19:38;0.70;;;0.70;;
17592;SDS011;8915;51.760;14.300;2024-02-23T03:22:04;1.07;;;0.70;;
17592;SDS011;8915;51.760;14.300;2024-02-23T03:24:31;0.70;;;0.70;;
17592;SDS011;8915;51.760;14.300;2024-02-23T03:26:57;0.50;;;0.50;;
17592;SDS011;8915;51.760;14.300;2024-02-23T03:29:24;0.70;;;0.70;;
17592;SDS011;8915;51.760;14.300;2024-02-23T03:31:54;0.87;;;0.87;;
17592;SDS011;8915;51.760;14.300;2024-02-23T03:34:20;0.57;;;0.57;;
17592;SDS011;8915;51.760;14.300;2024-02-23T03:36:48;0.50;;;0.50;;
17592;SDS011;8915;51.760;14.300;2024-02-23T03:39:14;0.70;;;0.70;;
17592;SDS011;8915;51.760;14.300;2024-02-23T03:41:41;1.17;;;0.90;;
17592;SDS011;8915;51.760;14.300;2024-02-23T03:44:07;0.80;;;0.80;;
17592;SDS011;8915;51.760;14.300;2024-02-23T03:46:34;0.83;;;0.70;;
17592;SDS011;8915;51.760;14.300;2024-02-23T03:49:01;0.70;;;0.70;;
17592;SDS011;8915;51.760;14.300;2024-02-23T03:51:27;0.70;;;0.70;;
17592;SDS011;8915;51.760;14.300;2024-02-23T03:53:55;0.87;;;0.87;;
17592;SDS011;8915;51.760;14.300;2024-02-23T03:56:21;0.73;;;0.70;;
17592;SDS011;8915;51.760;14.300;2024-02-23T03:58:47;0.90;;;0.87;;
17592;SDS011;8915;51.760;14.300;2024-02-23T04:01:14;1.53;;;0.70;;
17592;SDS011;8915;51.760;14.300;2024-02-23T04:03:40;1.37;;;1.00;;
17592;SDS011;8915;51.760;14.300;2024-02-23T04:06:06;0.80;;;0.73;;
17592;SDS011;8915;51.760;14.300;2024-02-23T04:08:33;0.80;;;0.80;;
17592;SDS011;8915;51.760;14.300;2024-02-23T04:11:00;1.93;;;0.80;;
17592;SDS011;8915;51.760;14.300;2024-02-23T04:13:27;0.70;;;0.70;;
17592;SDS011;8915;51.760;14.300;2024-02-23T04:15:53;0.70;;;0.70;;
17592;SDS011;8915;51.760;14.300;2024-02-23T04:18:22;0.80;;;0.80;;
17592;SDS011;8915;51.760;14.300;2024-02-23T04:20:48;1.27;;;0.80;;
17592;SDS011;8915;51.760;14.300;2024-02-23T04:23:15;0.70;;;0.70;;
17592;SDS011;8915;51.760;14.300;2024-02-23T04:25:41;1.93;;;0.73;;
17592;SDS011;8915;51.760;14.300;2024-02-23T04:28:09;1.47;;;0.60;;
17592;SDS011;8915;51.760;14.300;2024-02-23T04:30:35;0.70;;;0.67;;
17592;SDS011;8915;51.760;14.300;2024-02-23T04:33:01;0.70;;;0.70;;
17592;SDS011;8915;51.760;14.300;2024-02-23T04:35:28;1.10;;;0.87;;
17592;SDS011;8915;51.760;14.300;2024-02-23T04:37:54;1.53;;;0.80;;
17592;SDS011;8915;51.760;14.300;2024-02-23T04:40:20;3.10;;;0.80;;
17592;SDS011;8915;51.760;14.300;2024-02-23T04:42:47;0.80;;;0.80;;
17592;SDS011;8915;51.760;14.300;2024-02-23T04:45:14;1.57;;;0.60;;
17592;SDS011;8915;51.760;14.300;2024-02-23T04:47:41;0.83;;;0.67;;
17592;SDS011;8915;51.760;14.300;2024-02-23T04:50:08;0.63;;;0.63;;
17592;SDS011;8915;51.760;14.300;2024-02-23T04:52:35;1.03;;;0.70;;
17592;SDS011;8915;51.760;14.300;2024-02-23T04:55:01;0.60;;;0.60;;
17592;SDS011;8915;51.760;14.300;2024-02-23T04:57:27;0.50;;;0.50;;
17592;SDS011;8915;51.760;14.300;2024-02-23T04:59:54;0.60;;;0.60;;
17592;SDS011;8915;51.760;14.300;2024-02-23T05:02:21;0.50;;;0.50;;
17592;SDS011;8915;51.760;14.300;2024-02-23T05:04:48;0.60;;;0.60;;
17592;SDS011;8915;51.760;14.300;2024-02-23T05:07:14;0.40;;;0.40;;
17592;SDS011;8915;51.760;14.300;2024-02-23T05:09:40;0.57;;;0.57;;
17592;SDS011;8915;51.760;14.300;2024-02-23T05:12:07;1.13;;;0.60;;
17592;SDS011;8915;51.760;14.300;2024-02-23T05:14:34;0.77;;;0.50;;
17592;SDS011;8915;51.760;14.300;2024-02-23T05:17:01;0.53;;;0.43;;
17592;SDS011;8915;51.760;14.300;2024-02-23T05:19:29;0.50;;;0.50;;
17592;SDS011;8915;51.760;14.300;2024-02-23T05:21:56;0.57;;;0.57;;
17592;SDS011;8915;51.760;14.300;2024-02-23T05:24:22;0.60;;;0.60;;
17592;SDS011;8915;51.760;14.300;2024-02-23T05:26:48;0.73;;;0.50;;
17592;SDS011;8915;51.760;14.300;2024-02-23T05:29:15;0.67;;;0.50;;
17592;SDS011;8915;51.760;14.300;2024-02-23T05:31:43;0.60;;;0.60;;
17592;SDS011;8915;51.760;14.300;2024-02-23T05:34:11;1.20;;;0.53;;
17592;SDS011;8915;51.760;14.300;2024-02-23T05:36:39;0.53;;;0.43;;
17592;SDS011;8915;51.760;14.300;2024-02-23T05:39:05;0.30;;;0.30;;
17592;SDS011;8915;51.760;14.300;2024-02-23T05:41:32;0.57;;;0.57;;
17592;SDS011;8915;51.760;14.300;2024-02-23T05:43:59;0.57;;;0.57;;
17592;SDS011;8915;51.760;14.300;2024-02-23T05:46:25;0.50;;;0.50;;
17592;SDS011;8915;51.760;14.300;2024-02-23T05:48:51;0.70;;;0.70;;
17592;SDS011;8915;51.760;14.300;2024-02-23T05:51:18;1.23;;;0.50;;
17592;SDS011;8915;51.760;14.300;2024-02-23T05:53:45;0.73;;;0.70;;
17592;SDS011;8915;51.760;14.300;2024-02-23T05:56:12;0.50;;;0.50;;
17592;SDS011;8915;51.760;14.300;2024-02-23T05:58:38;0.90;;;0.67;;
17592;SDS011;8915;51.760;14.300;2024-02-23T06:01:05;1.13;;;0.50;;
17592;SDS011;8915;51.760;14.300;2024-02-23T06:03:32;0.60;;;0.50;;
17592;SDS011;8915;51.760;14.300;2024-02-23T06:05:58;1.93;;;0.40;;
17592;SDS011;8915;51.760;14.300;2024-02-23T06:08:24;0.60;;;0.43;;
17592;SDS011;8915;51.760;14.300;2024-02-23T06:10:52;2.80;;;0.50;;
17592;SDS011;8915;51.760;14.300;2024-02-23T06:13:19;0.30;;;0.30;;
17592;SDS011;8915;51.760;14.300;2024-02-23T06:15:45;0.70;;;0.60;;
17592;SDS011;8915;51.760;14.300;2024-02-23T06:18:11;0.33;;;0.33;;
17592;SDS011;8915;51.760;14.300;2024-02-23T06:20:38;0.30;;;0.30;;
17592;SDS011;8915;51.760;14.300;2024-02-23T06:23:04;0.50;;;0.50;;
17592;SDS011;8915;51.760;14.300;2024-02-23T06:25:30;1.37;;;0.50;;
17592;SDS011;8915;51.760;14.300;2024-02-23T06:28:00;0.50;;;0.50;;
17592;SDS011;8915;51.760;14.300;2024-02-23T06:30:27;1.23;;;0.70;;
17592;SDS011;8915;51.760;14.300;2024-02-23T06:32:53;0.53;;;0.40;;
17592;SDS011;8915;51.760;14.300;2024-02-23T06:35:19;0.37;;;0.37;;
17592;SDS011;8915;51.760;14.300;2024-02-23T06:37:47;0.57;;;0.50;;
17592;SDS011;8915;51.760;14.300;2024-02-23T06:40:13;0.40;;;0.40;;
17592;SDS011;8915;51.760;14.300;2024-02-23T06:42:40;1.50;;;0.60;;
17592;SDS011;8915;51.760;14.300;2024-02-23T06:45:08;2.07;;;0.60;;
17592;SDS011;8915;51.760;14.300;2024-02-23T06:47:34;0.60;;;0.60;;
17592;SDS011;8915;51.760;14.300;2024-02-23T06:50:01;0.80;;;0.60;;
17592;SDS011;8915;51.760;14.300;2024-02-23T06:52:28;0.50;;;0.50;;
17592;SDS011;8915;51.760;14.300;2024-02-23T06:54:55;1.97;;;0.70;;
17592;SDS011;8915;51.760;14.300;2024-02-23T06:57:21;0.60;;;0.60;;
17592;SDS011;8915;51.760;14.300;2024-02-23T06:59:50;2.17;;;0.57;;
17592;SDS011;8915;51.760;14.300;2024-02-23T07:02:18;1.97;;;0.80;;
17592;SDS011;8915;51.760;14.300;2024-02-23T07:04:44;0.90;;;0.70;;
17592;SDS011;8915;51.760;14.300;2024-02-23T07:07:11;1.73;;;0.70;;
17592;SDS011;8915;51.760;14.300;2024-02-23T07:09:37;1.07;;;0.60;;
17592;SDS011;8915;51.760;14.300;2024-02-23T07:12:04;0.70;;;0.70;;
17592;SDS011;8915;51.760;14.300;2024-02-23T07:14:31;1.40;;;0.60;;
17592;SDS011;8915;51.760;14.300;2024-02-23T07:16:58;2.13;;;0.67;;
17592;SDS011;8915;51.760;14.300;2024-02-23T07:19:25;2.73;;;0.60;;
17592;SDS011;8915;51.760;14.300;2024-02-23T07:21:52;1.73;;;0.67;;
17592;SDS011;8915;51.760;14.300;2024-02-23T07:24:18;1.23;;;0.70;;
17592;SDS011;8915;51.760;14.300;2024-02-23T07:26:44;1.73;;;0.40;;
17592;SDS011;8915;51.760;14.300;2024-02-23T07:29:11;0.60;;;0.60;;
17592;SDS011;8915;51.760;14.300;2024-02-23T07:31:37;2.47;;;0.40;;
17592;SDS011;8915;51.760;14.300;2024-02-23T07:34:03;0.53;;;0.40;;
17592;SDS011;8915;51.760;14.300;2024-02-23T07:36:31;0.90;;;0.70;;
17592;SDS011;8915;51.760;14.300;2024-02-23T07:38:57;1.27;;;0.70;;
17592;SDS011;8915;51.760;14.300;2024-02-23T07:41:24;0.77;;;0.30;;
17592;SDS011;8915;51.760;14.300;2024-02-23T07:43:50;0.60;;;0.57;;
17592;SDS011;8915;51.760;14.300;2024-02-23T07:46:16;0.60;;;0.60;;
17592;SDS011;8915;51.760;14.300;2024-02-23T07:48:43;0.60;;;0.60;;
17592;SDS011;8915;51.760;14.300;2024-02-23T07:51:09;0.60;;;0.60;;
17592;SDS011;8915;51.760;14.300;2024-02-23T07:53:37;1.33;;;0.80;;
17592;SDS011;8915;51.760;14.300;2024-02-23T07:56:04;0.83;;;0.57;;
17592;SDS011;8915;51.760;14.300;2024-02-23T07:58:33;1.13;;;0.70;;
17592;SDS011;8915;51.760;14.300;2024-02-23T08:00:59;2.23;;;0.60;;
17592;SDS011;8915;51.760;14.300;2024-02-23T08:03:26;2.43;;;0.60;;
17592;SDS011;8915;51.760;14.300;2024-02-23T08:05:52;0.60;;;0.60;;
17592;SDS011;8915;51.760;14.300;2024-02-23T08:08:18;2.07;;;0.70;;
17592;SDS011;8915;51.760;14.300;2024-02-23T08:10:48;1.93;;;0.90;;
17592;SDS011;8915;51.760;14.300;2024-02-23T08:13:15;0.60;;;0.60;;
17592;SDS011;8915;51.760;14.300;2024-02-23T08:15:43;0.90;;;0.60;;
17592;SDS011;8915;51.760;14.300;2024-02-23T08:18:09;2.20;;;0.70;;
17592;SDS011;8915;51.760;14.300;2024-02-23T08:20:36;0.60;;;0.60;;
17592;SDS011;8915;51.760;14.300;2024-02-23T08:23:02;1.70;;;0.70;;
17592;SDS011;8915;51.760;14.300;2024-02-23T08:25:29;1.07;;;0.80;;
17592;SDS011;8915;51.760;14.300;2024-02-23T08:27:57;0.57;;;0.57;;
17592;SDS011;8915;51.760;14.300;2024-02-23T08:30:23;0.70;;;0.63;;
17592;SDS011;8915;51.760;14.300;2024-02-23T08:32:50;0.80;;;0.57;;
17592;SDS011;8915;51.760;14.300;2024-02-23T08:35:16;1.03;;;0.60;;
17592;SDS011;8915;51.760;14.300;2024-02-23T08:37:43;0.97;;;0.83;;
17592;SDS011;8915;51.760;14.300;2024-02-23T08:40:10;2.73;;;1.70;;
17592;SDS011;8915;51.760;14.300;2024-02-23T08:42:37;0.60;;;0.60;;
17592;SDS011;8915;51.760;14.300;2024-02-23T08:45:05;0.87;;;0.73;;
17592;SDS011;8915;51.760;14.300;2024-02-23T08:47:32;0.50;;;0.50;;
17592;SDS011;8915;51.760;14.300;2024-02-23T08:50:01;0.80;;;0.67;;
17592;SDS011;8915;51.760;14.300;2024-02-23T08:52:29;0.60;;;0.60;;
17592;SDS011;8915;51.760;14.300;2024-02-23T08:54:56;0.50;;;0.50;;
17592;SDS011;8915;51.760;14.300;2024-02-23T08:57:22;2.03;;;0.60;;
17592;SDS011;8915;51.760;14.300;2024-02-23T08:59:48;0.60;;;0.60;;
17592;SDS011;8915;51.760;14.300;2024-02-23T09:02:16;0.90;;;0.50;;
17592;SDS011;8915;51.760;14.300;2024-02-23T09:04:46;0.60;;;0.60;;
17592;SDS011;8915;51.760;14.300;2024-02-23T09:07:13;0.60;;;0.60;;
17592;SDS011;8915;51.760;14.300;2024-02-23T09:09:39;1.53;;;0.63;;
17592;SDS011;8915;51.760;14.300;2024-02-23T09:12:06;1.57;;;0.63;;
17592;SDS011;8915;51.760;14.300;2024-02-23T09:14:35;1.93;;;0.70;;
17592;SDS011;8915;51.760;14.300;2024-02-23T09:17:02;2.10;;;0.70;;
17592;SDS011;8915;51.760;14.300;2024-02-23T09:19:30;0.50;;;0.50;;
17592;SDS011;8915;51.760;14.300;2024-02-23T09:21:57;0.67;;;0.67;;
17592;SDS011;8915;51.760;14.300;2024-02-23T09:24:25;0.70;;;0.70;;
17592;SDS011;8915;51.760;14.300;2024-02-23T09:26:51;0.80;;;0.60;;
17592;SDS011;8915;51.760;14.300;2024-02-23T09:29:18;0.50;;;0.50;;
17592;SDS011;8915;51.760;14.300;2024-02-23T09:31:44;0.90;;;0.87;;
17592;SDS011;8915;51.760;14.300;2024-02-23T09:34:11;1.33;;;0.80;;
17592;SDS011;8915;51.760;14.300;2024-02-23T09:36:38;1.27;;;0.90;;
17592;SDS011;8915;51.760;14.300;2024-02-23T09:39:05;2.73;;;0.50;;
17592;SDS011;8915;51.760;14.300;2024-02-23T09:41:31;0.50;;;0.50;;
17592;SDS011;8915;51.760;14.300;2024-02-23T09:44:00;2.43;;;0.77;;
17592;SDS011;8915;51.760;14.300;2024-02-23T09:46:27;1.33;;;0.80;;
17592;SDS011;8915;51.760;14.300;2024-02-23T09:48:54;0.87;;;0.87;;
17592;SDS011;8915;51.760;14.300;2024-02-23T09:51:22;0.70;;;0.50;;
17592;SDS011;8915;51.760;14.300;2024-02-23T09:53:50;1.07;;;0.83;;
17592;SDS011;8915;51.760;14.300;2024-02-23T09:56:16;0.80;;;0.40;;
17592;SDS011;8915;51.760;14.300;2024-02-23T09:58:44;0.77;;;0.70;;
17592;SDS011;8915;51.760;14.300;2024-02-23T10:01:13;2.13;;;1.10;;
17592;SDS011;8915;51.760;14.300;2024-02-23T10:03:45;0.50;;;0.50;;
17592;SDS011;8915;51.760;14.300;2024-02-23T10:06:12;0.77;;;0.70;;
17592;SDS011;8915;51.760;14.300;2024-02-23T10:08:38;0.60;;;0.40;;
17592;SDS011;8915;51.760;14.300;2024-02-23T10:11:06;1.40;;;0.53;;
17592;SDS011;8915;51.760;14.300;2024-02-23T10:13:33;1.90;;;0.60;;
17592;SDS011;8915;51.760;14.300;2024-02-23T10:15:59;0.83;;;0.83;;
17592;SDS011;8915;51.760;14.300;2024-02-23T10:18:26;1.30;;;1.13;;
17592;SDS011;8915;51.760;14.300;2024-02-23T10:20:52;2.20;;;1.93;;
17592;SDS011;8915;51.760;14.300;2024-02-23T10:23:19;2.50;;;2.00;;
17592;SDS011;8915;51.760;14.300;2024-02-23T10:25:48;0.70;;;0.70;;
17592;SDS011;8915;51.760;14.300;2024-02-23T10:28:19;1.13;;;0.90;;
17592;SDS011;8915;51.760;14.300;2024-02-23T10:30:47;0.40;;;0.40;;
17592;SDS011;8915;51.760;14.300;2024-02-23T10:33:14;0.57;;;0.57;;
17592;SDS011;8915;51.760;14.300;2024-02-23T10:35:40;1.07;;;0.77;;
17592;SDS011;8915;51.760;14.300;2024-02-23T10:38:10;0.60;;;0.60;;
17592;SDS011;8915;51.760;14.300;2024-02-23T10:40:38;0.70;;;0.60;;
17592;SDS011;8915;51.760;14.300;2024-02-23T10:43:06;0.53;;;0.53;;
17592;SDS011;8915;51.760;14.300;2024-02-23T10:45:39;1.40;;;0.90;;
17592;SDS011;8915;51.760;14.300;2024-02-23T10:48:06;1.73;;;0.70;;
17592;SDS011;8915;51.760;14.300;2024-02-23T10:50:34;0.60;;;0.60;;
17592;SDS011;8915;51.760;14.300;2024-02-23T10:53:02;1.50;;;1.40;;
17592;SDS011;8915;51.760;14.300;2024-02-23T10:55:32;1.67;;;0.73;;
17592;SDS011;8915;51.760;14.300;2024-02-23T10:57:59;0.53;;;0.53;;
17592;SDS011;8915;51.760;14.300;2024-02-23T11:00:28;0.57;;;0.57;;
17592;SDS011;8915;51.760;14.300;2024-02-23T11:02:57;0.60;;;0.60;;
17592;SDS011;8915;51.760;14.300;2024-02-23T11:05:24;0.73;;;0.57;;
17592;SDS011;8915;51.760;14.300;2024-02-23T11:07:51;0.57;;;0.57;;
17592;SDS011;8915;51.760;14.300;2024-02-23T11:10:22;1.53;;;0.97;;
17592;SDS011;8915;51.760;14.300;2024-02-23T11:12:56;1.73;;;1.20;;
17592;SDS011;8915;51.760;14.300;2024-02-23T11:15:27;2.67;;;0.97;;
17592;SDS011;8915;51.760;14.300;2024-02-23T11:17:55;1.33;;;0.80;;
17592;SDS011;8915;51.760;14.300;2024-02-23T11:20:22;0.60;;;0.60;;
17592;SDS011;8915;51.760;14.300;2024-02-23T11:22:51;0.80;;;0.80;;
17592;SDS011;8915;51.760;14.300;2024-02-23T11:25:18;0.70;;;0.70;;
17592;SDS011;8915;51.760;14.300;2024-02-23T11:27:48;1.33;;;0.50;;
17592;SDS011;8915;51.760;14.300;2024-02-23T11:30:16;1.67;;;0.67;;
17592;SDS011;8915;51.760;14.300;2024-02-23T11:32:44;1.40;;;1.20;;
17592;SDS011;8915;51.760;14.300;2024-02-23T11:35:14;2.20;;;1.00;;
17592;SDS011;8915;51.760;14.300;2024-02-23T11:37:47;1.63;;;1.07;;
17592;SDS011;8915;51.760;14.300;2024-02-23T11:40:14;7.27;;;4.07;;
17592;SDS011;8915;51.760;14.300;2024-02-23T11:42:41;1.40;;;0.97;;
17592;SDS011;8915;51.760;14.300;2024-02-23T11:45:08;0.97;;;0.67;;
17592;SDS011;8915;51.760;14.300;2024-02-23T11:47:36;1.63;;;0.40;;
17592;SDS011;8915;51.760;14.300;2024-02-23T11:50:02;0.50;;;0.50;;
17592;SDS011;8915;51.760;14.300;2024-02-23T11:52:35;0.73;;;0.40;;
17592;SDS011;8915;51.760;14.300;2024-02-23T11:55:03;0.60;;;0.60;;
17592;SDS011;8915;51.760;14.300;2024-02-23T11:57:30;1.60;;;0.60;;
17592;SDS011;8915;51.760;14.300;2024-02-23T11:59:57;0.97;;;0.60;;
17592;SDS011;8915;51.760;14.300;2024-02-23T12:02:24;1.30;;;0.50;;
17592;SDS011;8915;51.760;14.300;2024-02-23T12:04:50;0.43;;;0.43;;
17592;SDS011;8915;51.760;14.300;2024-02-23T12:07:17;0.37;;;0.30;;
17592;SDS011;8915;51.760;14.300;2024-02-23T12:09:47;0.53;;;0.53;;
17592;SDS011;8915;51.760;14.300;2024-02-23T12:12:14;0.83;;;0.70;;
17592;SDS011;8915;51.760;14.300;2024-02-23T12:14:40;1.17;;;0.40;;
17592;SDS011;8915;51.760;14.300;2024-02-23T12:17:07;0.43;;;0.43;;
17592;SDS011;8915;51.760;14.300;2024-02-23T12:19:37;0.77;;;0.60;;
17592;SDS011;8915;51.760;14.300;2024-02-23T12:22:04;1.10;;;0.60;;
17592;SDS011;8915;51.760;14.300;2024-02-23T12:24:30;1.73;;;0.70;;
17592;SDS011;8915;51.760;14.300;2024-02-23T12:26:58;0.93;;;0.53;;
17592;SDS011;8915;51.760;14.300;2024-02-23T12:29:24;0.50;;;0.50;;
17592;SDS011;8915;51.760;14.300;2024-02-23T12:32:01;1.17;;;0.70;;
17592;SDS011;8915;51.760;14.300;2024-02-23T12:34:28;1.33;;;0.70;;
17592;SDS011;8915;51.760;14.300;2024-02-23T12:36:55;1.27;;;0.60;;
17592;SDS011;8915;51.760;14.300;2024-02-23T12:39:21;0.50;;;0.50;;
17592;SDS011;8915;51.760;14.300;2024-02-23T12:41:48;0.67;;;0.53;;
17592;SDS011;8915;51.760;14.300;2024-02-23T12:44:17;0.77;;;0.30;;
17592;SDS011;8915;51.760;14.300;2024-02-23T12:46:43;0.53;;;0.40;;
17592;SDS011;8915;51.760;14.300;2024-02-23T12:49:09;0.83;;;0.83;;
17592;SDS011;8915;51.760;14.300;2024-02-23T12:51:36;0.77;;;0.60;;
17592;SDS011;8915;51.760;14.300;2024-02-23T12:54:02;1.87;;;0.80;;
17592;SDS011;8915;51.760;14.300;2024-02-23T12:56:29;1.63;;;0.80;;
17592;SDS011;8915;51.760;14.300;2024-02-23T12:58:56;0.80;;;0.50;;
17592;SDS011;8915;51.760;14.300;2024-02-23T13:01:23;1.10;;;0.40;;
17592;SDS011;8915;51.760;14.300;2024-02-23T13:03:50;0.93;;;0.60;;
17592;SDS011;8915;51.760;14.300;2024-02-23T13:06:16;0.87;;;0.53;;
17592;SDS011;8915;51.760;14.300;2024-02-23T13:08:42;0.97;;;0.70;;
17592;SDS011;8915;51.760;14.300;2024-02-23T13:11:09;1.80;;;0.70;;
17592;SDS011;8915;51.760;14.300;2024-02-23T13:13:35;3.30;;;0.70;;
17592;SDS011;8915;51.760;14.300;2024-02-23T13:16:02;1.73;;;0.50;;
17592;SDS011;8915;51.760;14.300;2024-02-23T13:18:30;1.23;;;0.77;;
17592;SDS011;8915;51.760;14.300;2024-02-23T13:20:56;1.27;;;0.93;;
17592;SDS011;8915;51.760;14.300;2024-02-23T13:23:23;1.93;;;0.70;;
17592;SDS011;8915;51.760;14.300;2024-02-23T13:25:49;0.80;;;0.80;;
17592;SDS011;8915;51.760;14.300;2024-02-23T13:28:16;1.80;;;0.93;;
17592;SDS011;8915;51.760;14.300;2024-02-23T13:30:42;0.80;;;0.47;;
17592;SDS011;8915;51.760;14.300;2024-02-23T13:33:10;0.70;;;0.70;;
17592;SDS011;8915;51.760;14.300;2024-02-23T13:35:38;0.97;;;0.87;;
17592;SDS011;8915;51.760;14.300;2024-02-23T13:38:05;4.10;;;1.63;;
17592;SDS011;8915;51.760;14.300;2024-02-23T13:40:32;1.90;;;0.80;;
17592;SDS011;8915;51.760;14.300;2024-02-23T13:42:58;2.17;;;0.90;;
17592;SDS011;8915;51.760;14.300;2024-02-23T13:45:24;2.10;;;1.03;;
17592;SDS011;8915;51.760;14.300;2024-02-23T13:47:57;2.00;;;1.17;;
17592;SDS011;8915;51.760;14.300;2024-02-23T13:50:25;2.17;;;0.93;;
17592;SDS011;8915;51.760;14.300;2024-02-23T13:52:53;2.17;;;1.50;;
17592;SDS011;8915;51.760;14.300;2024-02-23T13:55:20;3.30;;;2.47;;
17592;SDS011;8915;51.760;14.300;2024-02-23T13:57:46;2.67;;;2.23;;
17592;SDS011;8915;51.760;14.300;2024-02-23T14:00:15;7.47;;;4.27;;
17592;SDS011;8915;51.760;14.300;2024-02-23T14:02:41;4.77;;;2.43;;
17592;SDS011;8915;51.760;14.300;2024-02-23T14:05:09;3.03;;;1.40;;
17592;SDS011;8915;51.760;14.300;2024-02-23T14:07:36;1.23;;;0.90;;
17592;SDS011;8915;51.760;14.300;2024-02-23T14:10:06;1.00;;;1.00;;
17592;SDS011;8915;51.760;14.300;2024-02-23T14:12:33;1.87;;;0.90;;
17592;SDS011;8915;51.760;14.300;2024-02-23T14:15:02;1.10;;;0.97;;
17592;SDS011;8915;51.760;14.300;2024-02-23T14:17:29;0.80;;;0.80;;
17592;SDS011;8915;51.760;14.300;2024-02-23T14:19:56;1.20;;;0.83;;
17592;SDS011;8915;51.760;14.300;2024-02-23T14:22:22;1.63;;;0.67;;
17592;SDS011;8915;51.760;14.300;2024-02-23T14:24:49;0.83;;;0.73;;
17592;SDS011;8915;51.760;14.300;2024-02-23T14:27:17;1.17;;;0.73;;
17592;SDS011;8915;51.760;14.300;2024-02-23T14:29:43;1.70;;;0.83;;
17592;SDS011;8915;51.760;14.300;2024-02-23T14:32:10;0.57;;;0.57;;
17592;SDS011;8915;51.760;14.300;2024-02-23T14:34:41;0.67;;;0.60;;
17592;SDS011;8915;51.760;14.300;2024-02-23T14:37:08;1.83;;;0.77;;
17592;SDS011;8915;51.760;14.300;2024-02-23T14:39:34;1.83;;;0.73;;
17592;SDS011;8915;51.760;14.300;2024-02-23T14:42:01;1.00;;;0.70;;
17592;SDS011;8915;51.760;14.300;2024-02-23T14:44:29;0.70;;;0.67;;
17592;SDS011;8915;51.760;14.300;2024-02-23T14:46:56;0.97;;;0.80;;